sensor_id;sensor_type;location;lat;lon;timestamp;temperature;humidity
41922;DHT22;27609;51.002;5.354;2022-11-15T00:01:43;10.60;99.90
41922;DHT22;27609;51.002;5.354;2022-11-15T00:04:10;10.60;99.90
41922;DHT22;27609;51.002;5.354;2022-11-15T00:06:36;10.60;99.90
41922;DHT22;27609;51.002;5.354;2022-11-15T00:09:02;10.70;99.90
41922;DHT22;27609;51.002;5.354;2022-11-15T00:11:28;10.80;99.90
41922;DHT22;27609;51.002;5.354;2022-11-15T00:13:58;10.80;99.90
41922;DHT22;27609;51.002;5.354;2022-11-15T00:16:24;10.90;99.90
41922;DHT22;27609;51.002;5.354;2022-11-15T00:18:50;10.90;99.90
41922;DHT22;27609;51.002;5.354;2022-11-15T00:21:17;11.00;99.90
41922;DHT22;27609;51.002;5.354;2022-11-15T00:23:43;11.00;99.90
41922;DHT22;27609;51.002;5.354;2022-11-15T00:26:13;11.00;99.90
41922;DHT22;27609;51.002;5.354;2022-11-15T00:28:39;11.50;99.90
41922;DHT22;27609;51.002;5.354;2022-11-15T00:31:11;11.20;99.90
41922;DHT22;27609;51.002;5.354;2022-11-15T00:33:37;11.20;99.90
41922;DHT22;27609;51.002;5.354;2022-11-15T00:36:04;11.20;99.90
41922;DHT22;27609;51.002;5.354;2022-11-15T00:38:35;11.30;99.90
41922;DHT22;27609;51.002;5.354;2022-11-15T00:41:01;11.30;99.90
41922;DHT22;27609;51.002;5.354;2022-11-15T00:43:27;11.30;99.90
41922;DHT22;27609;51.002;5.354;2022-11-15T00:45:53;11.30;99.90
41922;DHT22;27609;51.002;5.354;2022-11-15T00:48:18;11.30;99.90
41922;DHT22;27609;51.002;5.354;2022-11-15T00:50:44;11.30;99.90
41922;DHT22;27609;51.002;5.354;2022-11-15T00:53:10;11.50;99.90
41922;DHT22;27609;51.002;5.354;2022-11-15T00:55:35;11.40;99.90
41922;DHT22;27609;51.002;5.354;2022-11-15T00:58:01;11.40;99.90
41922;DHT22;27609;51.002;5.354;2022-11-15T01:00:27;11.40;99.90
41922;DHT22;27609;51.002;5.354;2022-11-15T01:02:53;11.40;99.90
41922;DHT22;27609;51.002;5.354;2022-11-15T01:05:18;11.50;99.90
41922;DHT22;27609;51.002;5.354;2022-11-15T01:07:44;11.50;99.90
41922;DHT22;27609;51.002;5.354;2022-11-15T01:10:10;11.50;99.90
41922;DHT22;27609;51.002;5.354;2022-11-15T01:12:35;11.50;99.90
41922;DHT22;27609;51.002;5.354;2022-11-15T01:15:01;11.50;99.90
41922;DHT22;27609;51.002;5.354;2022-11-15T01:17:27;11.50;99.90
41922;DHT22;27609;51.002;5.354;2022-11-15T01:19:52;11.70;99.90
41922;DHT22;27609;51.002;5.354;2022-11-15T01:22:18;11.60;99.90
41922;DHT22;27609;51.002;5.354;2022-11-15T01:24:44;11.60;99.90
41922;DHT22;27609;51.002;5.354;2022-11-15T01:27:10;11.70;99.90
41922;DHT22;27609;51.002;5.354;2022-11-15T01:29:35;11.60;99.90
41922;DHT22;27609;51.002;5.354;2022-11-15T01:32:02;11.70;99.90
41922;DHT22;27609;51.002;5.354;2022-11-15T01:34:28;11.70;99.90
41922;DHT22;27609;51.002;5.354;2022-11-15T01:36:53;11.80;99.90
41922;DHT22;27609;51.002;5.354;2022-11-15T01:39:19;11.80;99.90
41922;DHT22;27609;51.002;5.354;2022-11-15T01:41:45;11.70;99.90
41922;DHT22;27609;51.002;5.354;2022-11-15T01:44:39;11.80;99.90
41922;DHT22;27609;51.002;5.354;2022-11-15T01:49:39;11.70;99.90
41922;DHT22;27609;51.002;5.354;2022-11-15T01:52:09;11.80;99.90
41922;DHT22;27609;51.002;5.354;2022-11-15T01:54:38;11.80;99.90
41922;DHT22;27609;51.002;5.354;2022-11-15T01:57:07;12.30;99.90
41922;DHT22;27609;51.002;5.354;2022-11-15T01:59:36;11.80;99.90
41922;DHT22;27609;51.002;5.354;2022-11-15T02:02:02;11.80;99.90
41922;DHT22;27609;51.002;5.354;2022-11-15T02:04:30;11.80;99.90
41922;DHT22;27609;51.002;5.354;2022-11-15T02:06:56;11.80;99.90
41922;DHT22;27609;51.002;5.354;2022-11-15T02:09:23;11.80;99.90
41922;DHT22;27609;51.002;5.354;2022-11-15T02:11:50;12.10;99.90
41922;DHT22;27609;51.002;5.354;2022-11-15T02:14:18;11.80;99.90
41922;DHT22;27609;51.002;5.354;2022-11-15T02:19:44;11.90;99.90
41922;DHT22;27609;51.002;5.354;2022-11-15T02:25:18;11.90;99.90
41922;DHT22;27609;51.002;5.354;2022-11-15T02:31:14;12.00;99.90
41922;DHT22;27609;51.002;5.354;2022-11-15T02:36:42;12.40;99.90
41922;DHT22;27609;51.002;5.354;2022-11-15T02:39:26;12.00;99.90
41922;DHT22;27609;51.002;5.354;2022-11-15T02:42:07;12.10;99.90
41922;DHT22;27609;51.002;5.354;2022-11-15T02:44:56;12.10;99.90
41922;DHT22;27609;51.002;5.354;2022-11-15T02:47:24;12.30;99.90
41922;DHT22;27609;51.002;5.354;2022-11-15T02:49:54;12.10;99.90
41922;DHT22;27609;51.002;5.354;2022-11-15T02:52:23;12.10;99.90
41922;DHT22;27609;51.002;5.354;2022-11-15T02:54:58;12.10;99.90
41922;DHT22;27609;51.002;5.354;2022-11-15T03:00:34;12.10;99.90
41922;DHT22;27609;51.002;5.354;2022-11-15T03:08:32;12.10;99.90
41922;DHT22;27609;51.002;5.354;2022-11-15T03:11:14;12.00;99.90
41922;DHT22;27609;51.002;5.354;2022-11-15T03:16:56;11.90;99.90
41922;DHT22;27609;51.002;5.354;2022-11-15T03:19:35;11.90;99.90
41922;DHT22;27609;51.002;5.354;2022-11-15T03:22:04;11.90;99.90
41922;DHT22;27609;51.002;5.354;2022-11-15T03:24:34;11.90;99.90
41922;DHT22;27609;51.002;5.354;2022-11-15T03:27:02;11.90;99.90
41922;DHT22;27609;51.002;5.354;2022-11-15T03:29:35;11.90;99.90
41922;DHT22;27609;51.002;5.354;2022-11-15T03:32:10;11.80;99.90
41922;DHT22;27609;51.002;5.354;2022-11-15T03:34:57;11.80;99.90
41922;DHT22;27609;51.002;5.354;2022-11-15T03:40:30;11.80;99.90
41922;DHT22;27609;51.002;5.354;2022-11-15T03:43:15;11.80;99.90
41922;DHT22;27609;51.002;5.354;2022-11-15T03:45:54;11.90;99.90
41922;DHT22;27609;51.002;5.354;2022-11-15T03:48:24;11.90;99.90
41922;DHT22;27609;51.002;5.354;2022-11-15T03:50:51;12.00;99.90
41922;DHT22;27609;51.002;5.354;2022-11-15T03:53:17;12.20;99.90
41922;DHT22;27609;51.002;5.354;2022-11-15T03:55:43;12.30;99.90
41922;DHT22;27609;51.002;5.354;2022-11-15T03:58:09;12.40;99.90
41922;DHT22;27609;51.002;5.354;2022-11-15T04:00:34;12.40;99.90
41922;DHT22;27609;51.002;5.354;2022-11-15T04:03:00;12.60;99.90
41922;DHT22;27609;51.002;5.354;2022-11-15T04:05:26;12.50;99.90
41922;DHT22;27609;51.002;5.354;2022-11-15T04:07:52;12.20;99.90
41922;DHT22;27609;51.002;5.354;2022-11-15T04:10:17;12.30;99.90
41922;DHT22;27609;51.002;5.354;2022-11-15T04:12:45;12.50;99.90
41922;DHT22;27609;51.002;5.354;2022-11-15T04:15:15;12.50;99.90
41922;DHT22;27609;51.002;5.354;2022-11-15T04:17:48;12.70;99.90
41922;DHT22;27609;51.002;5.354;2022-11-15T04:23:04;12.90;99.90
41922;DHT22;27609;51.002;5.354;2022-11-15T04:25:55;12.90;99.90
41922;DHT22;27609;51.002;5.354;2022-11-15T04:28:21;13.00;99.90
41922;DHT22;27609;51.002;5.354;2022-11-15T04:30:47;13.00;99.90
41922;DHT22;27609;51.002;5.354;2022-11-15T04:35:43;13.00;99.90
41922;DHT22;27609;51.002;5.354;2022-11-15T04:38:10;12.90;99.90
41922;DHT22;27609;51.002;5.354;2022-11-15T04:40:37;12.60;99.90
41922;DHT22;27609;51.002;5.354;2022-11-15T04:43:03;12.90;99.90
41922;DHT22;27609;51.002;5.354;2022-11-15T04:45:29;12.60;99.90
41922;DHT22;27609;51.002;5.354;2022-11-15T04:47:55;12.20;99.90
41922;DHT22;27609;51.002;5.354;2022-11-15T04:50:21;12.00;99.90
41922;DHT22;27609;51.002;5.354;2022-11-15T04:52:52;11.90;99.90
41922;DHT22;27609;51.002;5.354;2022-11-15T04:55:18;11.90;99.90
41922;DHT22;27609;51.002;5.354;2022-11-15T04:57:44;11.80;99.90
41922;DHT22;27609;51.002;5.354;2022-11-15T05:00:12;11.70;99.90
41922;DHT22;27609;51.002;5.354;2022-11-15T05:02:38;11.70;99.90
41922;DHT22;27609;51.002;5.354;2022-11-15T05:05:23;11.70;99.90
41922;DHT22;27609;51.002;5.354;2022-11-15T05:07:49;11.60;99.90
41922;DHT22;27609;51.002;5.354;2022-11-15T05:10:15;11.40;99.90
41922;DHT22;27609;51.002;5.354;2022-11-15T05:12:40;11.30;99.90
41922;DHT22;27609;51.002;5.354;2022-11-15T05:15:06;11.10;99.90
41922;DHT22;27609;51.002;5.354;2022-11-15T05:17:32;11.10;99.90
41922;DHT22;27609;51.002;5.354;2022-11-15T05:19:58;11.10;99.90
41922;DHT22;27609;51.002;5.354;2022-11-15T05:22:23;11.20;99.90
41922;DHT22;27609;51.002;5.354;2022-11-15T05:24:49;11.20;99.90
41922;DHT22;27609;51.002;5.354;2022-11-15T05:27:14;11.20;99.90
41922;DHT22;27609;51.002;5.354;2022-11-15T05:29:40;11.00;99.90
41922;DHT22;27609;51.002;5.354;2022-11-15T05:32:06;11.10;99.90
41922;DHT22;27609;51.002;5.354;2022-11-15T05:34:33;11.00;99.90
41922;DHT22;27609;51.002;5.354;2022-11-15T05:36:59;11.00;99.90
41922;DHT22;27609;51.002;5.354;2022-11-15T05:39:25;10.90;99.90
41922;DHT22;27609;51.002;5.354;2022-11-15T05:42:10;11.00;99.90
41922;DHT22;27609;51.002;5.354;2022-11-15T05:44:39;10.80;99.90
41922;DHT22;27609;51.002;5.354;2022-11-15T05:47:09;10.80;99.90
41922;DHT22;27609;51.002;5.354;2022-11-15T05:49:38;11.00;99.90
41922;DHT22;27609;51.002;5.354;2022-11-15T05:52:07;10.80;99.90
41922;DHT22;27609;51.002;5.354;2022-11-15T05:54:36;10.80;99.90
41922;DHT22;27609;51.002;5.354;2022-11-15T05:57:03;10.80;99.90
41922;DHT22;27609;51.002;5.354;2022-11-15T05:59:30;10.80;99.90
41922;DHT22;27609;51.002;5.354;2022-11-15T06:01:57;10.80;99.90
41922;DHT22;27609;51.002;5.354;2022-11-15T06:04:22;10.80;99.90
41922;DHT22;27609;51.002;5.354;2022-11-15T06:06:49;10.70;99.90
41922;DHT22;27609;51.002;5.354;2022-11-15T06:09:14;10.70;99.90
41922;DHT22;27609;51.002;5.354;2022-11-15T06:11:40;10.60;99.90
41922;DHT22;27609;51.002;5.354;2022-11-15T06:14:06;10.50;99.90
41922;DHT22;27609;51.002;5.354;2022-11-15T06:16:31;10.60;99.90
41922;DHT22;27609;51.002;5.354;2022-11-15T06:18:57;10.50;99.90
41922;DHT22;27609;51.002;5.354;2022-11-15T06:21:23;10.50;99.90
41922;DHT22;27609;51.002;5.354;2022-11-15T06:23:48;10.50;99.90
41922;DHT22;27609;51.002;5.354;2022-11-15T06:26:14;10.50;99.90
41922;DHT22;27609;51.002;5.354;2022-11-15T06:28:40;10.50;99.90
41922;DHT22;27609;51.002;5.354;2022-11-15T06:31:07;10.40;99.90
41922;DHT22;27609;51.002;5.354;2022-11-15T06:33:33;10.40;99.90
41922;DHT22;27609;51.002;5.354;2022-11-15T06:36:07;11.00;99.90
41922;DHT22;27609;51.002;5.354;2022-11-15T06:38:33;10.40;99.90
41922;DHT22;27609;51.002;5.354;2022-11-15T06:41:07;10.40;99.90
41922;DHT22;27609;51.002;5.354;2022-11-15T06:43:34;10.40;99.90
41922;DHT22;27609;51.002;5.354;2022-11-15T06:46:00;10.40;99.90
41922;DHT22;27609;51.002;5.354;2022-11-15T06:48:27;10.40;99.90
41922;DHT22;27609;51.002;5.354;2022-11-15T06:50:57;10.40;99.90
41922;DHT22;27609;51.002;5.354;2022-11-15T06:53:23;10.30;99.90
41922;DHT22;27609;51.002;5.354;2022-11-15T06:55:49;10.90;99.90
41922;DHT22;27609;51.002;5.354;2022-11-15T06:58:15;10.60;99.90
41922;DHT22;27609;51.002;5.354;2022-11-15T07:00:41;10.60;99.90
41922;DHT22;27609;51.002;5.354;2022-11-15T07:03:07;10.30;99.90
41922;DHT22;27609;51.002;5.354;2022-11-15T07:05:33;10.30;99.90
41922;DHT22;27609;51.002;5.354;2022-11-15T07:07:59;10.30;99.90
41922;DHT22;27609;51.002;5.354;2022-11-15T07:10:26;10.30;99.90
41922;DHT22;27609;51.002;5.354;2022-11-15T07:12:52;10.40;99.90
41922;DHT22;27609;51.002;5.354;2022-11-15T07:15:19;10.30;99.90
41922;DHT22;27609;51.002;5.354;2022-11-15T07:17:45;10.30;99.90
41922;DHT22;27609;51.002;5.354;2022-11-15T07:20:12;10.30;99.90
41922;DHT22;27609;51.002;5.354;2022-11-15T07:22:39;10.30;99.90
41922;DHT22;27609;51.002;5.354;2022-11-15T07:25:05;10.30;99.90
41922;DHT22;27609;51.002;5.354;2022-11-15T07:27:30;10.20;99.90
41922;DHT22;27609;51.002;5.354;2022-11-15T07:29:56;10.20;99.90
41922;DHT22;27609;51.002;5.354;2022-11-15T07:32:22;10.10;99.90
41922;DHT22;27609;51.002;5.354;2022-11-15T07:34:47;10.10;99.90
41922;DHT22;27609;51.002;5.354;2022-11-15T07:37:13;10.10;99.90
41922;DHT22;27609;51.002;5.354;2022-11-15T07:39:38;10.40;99.90
41922;DHT22;27609;51.002;5.354;2022-11-15T07:42:04;10.10;99.90
41922;DHT22;27609;51.002;5.354;2022-11-15T07:44:48;10.20;99.90
41922;DHT22;27609;51.002;5.354;2022-11-15T07:47:14;10.10;99.90
41922;DHT22;27609;51.002;5.354;2022-11-15T07:49:40;10.10;99.90
41922;DHT22;27609;51.002;5.354;2022-11-15T07:52:06;10.10;99.90
41922;DHT22;27609;51.002;5.354;2022-11-15T07:54:31;10.10;99.90
41922;DHT22;27609;51.002;5.354;2022-11-15T07:56:57;10.20;99.90
41922;DHT22;27609;51.002;5.354;2022-11-15T07:59:22;10.10;99.90
41922;DHT22;27609;51.002;5.354;2022-11-15T08:01:48;10.20;99.90
41922;DHT22;27609;51.002;5.354;2022-11-15T08:04:14;10.10;99.90
41922;DHT22;27609;51.002;5.354;2022-11-15T08:06:39;10.20;99.90
41922;DHT22;27609;51.002;5.354;2022-11-15T08:09:05;10.30;99.90
41922;DHT22;27609;51.002;5.354;2022-11-15T08:11:31;10.40;99.90
41922;DHT22;27609;51.002;5.354;2022-11-15T08:13:56;10.70;99.90
41922;DHT22;27609;51.002;5.354;2022-11-15T08:16:22;11.10;99.90
41922;DHT22;27609;51.002;5.354;2022-11-15T08:18:48;11.50;99.90
41922;DHT22;27609;51.002;5.354;2022-11-15T08:21:18;11.70;99.90
41922;DHT22;27609;51.002;5.354;2022-11-15T08:23:44;11.50;99.90
41922;DHT22;27609;51.002;5.354;2022-11-15T08:26:09;11.30;99.90
41922;DHT22;27609;51.002;5.354;2022-11-15T08:28:35;11.30;99.90
41922;DHT22;27609;51.002;5.354;2022-11-15T08:31:01;11.60;99.90
41922;DHT22;27609;51.002;5.354;2022-11-15T08:33:28;11.60;99.90
41922;DHT22;27609;51.002;5.354;2022-11-15T08:35:56;11.80;99.90
41922;DHT22;27609;51.002;5.354;2022-11-15T08:38:23;11.90;99.90
41922;DHT22;27609;51.002;5.354;2022-11-15T08:40:51;11.90;99.90
41922;DHT22;27609;51.002;5.354;2022-11-15T08:43:16;12.10;99.90
41922;DHT22;27609;51.002;5.354;2022-11-15T08:45:42;12.10;99.90
41922;DHT22;27609;51.002;5.354;2022-11-15T08:48:08;12.70;99.90
41922;DHT22;27609;51.002;5.354;2022-11-15T08:50:33;13.00;99.90
41922;DHT22;27609;51.002;5.354;2022-11-15T08:53:05;13.40;99.90
41922;DHT22;27609;51.002;5.354;2022-11-15T08:55:31;13.50;99.90
41922;DHT22;27609;51.002;5.354;2022-11-15T08:57:57;13.90;99.90
41922;DHT22;27609;51.002;5.354;2022-11-15T09:00:23;13.80;99.90
41922;DHT22;27609;51.002;5.354;2022-11-15T09:02:49;14.00;99.90
41922;DHT22;27609;51.002;5.354;2022-11-15T09:05:14;14.20;99.90
41922;DHT22;27609;51.002;5.354;2022-11-15T09:07:44;14.50;99.90
41922;DHT22;27609;51.002;5.354;2022-11-15T09:10:09;14.90;99.90
41922;DHT22;27609;51.002;5.354;2022-11-15T09:12:35;14.70;99.90
41922;DHT22;27609;51.002;5.354;2022-11-15T09:15:01;14.20;99.90
41922;DHT22;27609;51.002;5.354;2022-11-15T09:17:27;14.10;99.90
41922;DHT22;27609;51.002;5.354;2022-11-15T09:19:52;14.20;99.90
41922;DHT22;27609;51.002;5.354;2022-11-15T09:22:18;14.10;99.90
41922;DHT22;27609;51.002;5.354;2022-11-15T09:24:44;13.70;99.90
41922;DHT22;27609;51.002;5.354;2022-11-15T09:27:09;13.80;99.90
41922;DHT22;27609;51.002;5.354;2022-11-15T09:29:35;13.60;99.90
41922;DHT22;27609;51.002;5.354;2022-11-15T09:32:02;13.30;99.90
41922;DHT22;27609;51.002;5.354;2022-11-15T09:34:27;13.60;99.90
41922;DHT22;27609;51.002;5.354;2022-11-15T09:36:53;13.90;99.90
41922;DHT22;27609;51.002;5.354;2022-11-15T09:39:19;13.90;99.90
41922;DHT22;27609;51.002;5.354;2022-11-15T09:50:18;13.60;99.90
41922;DHT22;27609;51.002;5.354;2022-11-15T09:52:47;13.90;99.90
41922;DHT22;27609;51.002;5.354;2022-11-15T09:55:14;14.10;99.90
41922;DHT22;27609;51.002;5.354;2022-11-15T09:58:15;14.70;99.90
41922;DHT22;27609;51.002;5.354;2022-11-15T10:00:47;15.60;99.90
41922;DHT22;27609;51.002;5.354;2022-11-15T10:03:26;14.90;99.90
41922;DHT22;27609;51.002;5.354;2022-11-15T10:05:57;14.50;99.90
41922;DHT22;27609;51.002;5.354;2022-11-15T10:08:46;14.70;99.90
41922;DHT22;27609;51.002;5.354;2022-11-15T10:11:20;15.20;99.90
41922;DHT22;27609;51.002;5.354;2022-11-15T10:13:48;15.10;99.90
41922;DHT22;27609;51.002;5.354;2022-11-15T10:27:35;14.30;99.90
41922;DHT22;27609;51.002;5.354;2022-11-15T10:30:05;14.30;99.90
41922;DHT22;27609;51.002;5.354;2022-11-15T10:32:36;14.40;99.90
41922;DHT22;27609;51.002;5.354;2022-11-15T10:35:23;14.80;99.90
41922;DHT22;27609;51.002;5.354;2022-11-15T10:37:49;15.00;99.90
41922;DHT22;27609;51.002;5.354;2022-11-15T10:40:21;15.10;99.90
41922;DHT22;27609;51.002;5.354;2022-11-15T10:42:48;15.30;99.90
41922;DHT22;27609;51.002;5.354;2022-11-15T10:45:27;15.40;99.90
41922;DHT22;27609;51.002;5.354;2022-11-15T10:47:54;15.80;99.90
41922;DHT22;27609;51.002;5.354;2022-11-15T10:50:44;15.40;99.90
41922;DHT22;27609;51.002;5.354;2022-11-15T10:55:47;14.00;99.90
41922;DHT22;27609;51.002;5.354;2022-11-15T10:58:43;14.00;99.90
41922;DHT22;27609;51.002;5.354;2022-11-15T11:01:18;14.20;99.90
41922;DHT22;27609;51.002;5.354;2022-11-15T11:03:46;14.20;99.90
41922;DHT22;27609;51.002;5.354;2022-11-15T11:06:23;14.30;99.90
41922;DHT22;27609;51.002;5.354;2022-11-15T11:09:03;14.20;99.90
41922;DHT22;27609;51.002;5.354;2022-11-15T11:11:47;13.90;99.90
41922;DHT22;27609;51.002;5.354;2022-11-15T11:14:21;13.80;99.90
41922;DHT22;27609;51.002;5.354;2022-11-15T11:16:55;13.70;99.90
41922;DHT22;27609;51.002;5.354;2022-11-15T11:22:18;13.90;99.90
41922;DHT22;27609;51.002;5.354;2022-11-15T11:25:15;14.30;99.90
41922;DHT22;27609;51.002;5.354;2022-11-15T11:30:20;14.20;99.90
41922;DHT22;27609;51.002;5.354;2022-11-15T11:35:29;13.90;99.90
41922;DHT22;27609;51.002;5.354;2022-11-15T11:38:09;14.00;99.90
41922;DHT22;27609;51.002;5.354;2022-11-15T11:49:41;14.30;99.90
41922;DHT22;27609;51.002;5.354;2022-11-15T11:55:05;14.60;99.90
41922;DHT22;27609;51.002;5.354;2022-11-15T11:58:04;14.50;99.90
41922;DHT22;27609;51.002;5.354;2022-11-15T12:00:40;14.40;99.90
41922;DHT22;27609;51.002;5.354;2022-11-15T12:03:29;14.40;99.90
41922;DHT22;27609;51.002;5.354;2022-11-15T12:06:02;14.10;99.90
41922;DHT22;27609;51.002;5.354;2022-11-15T12:11:15;14.10;99.90
41922;DHT22;27609;51.002;5.354;2022-11-15T12:13:43;14.00;99.90
41922;DHT22;27609;51.002;5.354;2022-11-15T12:16:23;14.10;99.90
41922;DHT22;27609;51.002;5.354;2022-11-15T12:18:54;14.20;99.90
41922;DHT22;27609;51.002;5.354;2022-11-15T12:24:14;13.80;99.90
41922;DHT22;27609;51.002;5.354;2022-11-15T12:26:50;13.90;99.90
41922;DHT22;27609;51.002;5.354;2022-11-15T12:32:04;14.10;99.90
41922;DHT22;27609;51.002;5.354;2022-11-15T12:34:43;14.20;99.90
41922;DHT22;27609;51.002;5.354;2022-11-15T12:40:04;14.10;99.90
41922;DHT22;27609;51.002;5.354;2022-11-15T12:44:57;14.00;99.90
41922;DHT22;27609;51.002;5.354;2022-11-15T12:47:26;14.10;99.90
41922;DHT22;27609;51.002;5.354;2022-11-15T12:49:52;14.10;99.90
41922;DHT22;27609;51.002;5.354;2022-11-15T12:52:18;14.00;99.90
41922;DHT22;27609;51.002;5.354;2022-11-15T12:54:58;14.10;99.90
41922;DHT22;27609;51.002;5.354;2022-11-15T12:57:37;14.20;99.90
41922;DHT22;27609;51.002;5.354;2022-11-15T13:02:40;14.20;99.90
41922;DHT22;27609;51.002;5.354;2022-11-15T13:22:58;14.20;99.90
41922;DHT22;27609;51.002;5.354;2022-11-15T13:25:40;14.20;99.90
41922;DHT22;27609;51.002;5.354;2022-11-15T13:30:50;14.10;99.90
41922;DHT22;27609;51.002;5.354;2022-11-15T13:33:21;14.20;99.90
41922;DHT22;27609;51.002;5.354;2022-11-15T13:35:52;14.10;99.90
41922;DHT22;27609;51.002;5.354;2022-11-15T13:40:52;14.20;99.90
41922;DHT22;27609;51.002;5.354;2022-11-15T13:48:31;14.20;99.90
41922;DHT22;27609;51.002;5.354;2022-11-15T13:50:59;14.30;99.90
41922;DHT22;27609;51.002;5.354;2022-11-15T13:53:26;14.20;99.90
41922;DHT22;27609;51.002;5.354;2022-11-15T13:55:53;14.20;99.90
41922;DHT22;27609;51.002;5.354;2022-11-15T13:58:21;14.30;99.90
41922;DHT22;27609;51.002;5.354;2022-11-15T14:00:46;14.30;99.90
41922;DHT22;27609;51.002;5.354;2022-11-15T14:03:20;14.30;99.90
41922;DHT22;27609;51.002;5.354;2022-11-15T14:06:13;14.30;99.90
41922;DHT22;27609;51.002;5.354;2022-11-15T14:11:25;14.30;99.90
41922;DHT22;27609;51.002;5.354;2022-11-15T14:16:43;14.20;99.90
41922;DHT22;27609;51.002;5.354;2022-11-15T14:19:33;14.20;99.90
41922;DHT22;27609;51.002;5.354;2022-11-15T14:22:09;14.20;99.90
41922;DHT22;27609;51.002;5.354;2022-11-15T14:24:36;14.20;99.90
41922;DHT22;27609;51.002;5.354;2022-11-15T14:27:25;14.20;99.90
41922;DHT22;27609;51.002;5.354;2022-11-15T14:29:52;14.20;99.90
41922;DHT22;27609;51.002;5.354;2022-11-15T14:32:26;14.20;99.90
41922;DHT22;27609;51.002;5.354;2022-11-15T14:34:59;14.20;99.90
41922;DHT22;27609;51.002;5.354;2022-11-15T14:39:52;14.10;99.90
41922;DHT22;27609;51.002;5.354;2022-11-15T14:42:19;14.10;99.90
41922;DHT22;27609;51.002;5.354;2022-11-15T14:44:46;14.20;99.90
41922;DHT22;27609;51.002;5.354;2022-11-15T14:47:12;14.10;99.90
41922;DHT22;27609;51.002;5.354;2022-11-15T14:49:37;14.00;99.90
41922;DHT22;27609;51.002;5.354;2022-11-15T14:52:22;14.00;99.90
41922;DHT22;27609;51.002;5.354;2022-11-15T14:54:48;14.10;99.90
41922;DHT22;27609;51.002;5.354;2022-11-15T14:57:14;14.20;99.90
41922;DHT22;27609;51.002;5.354;2022-11-15T14:59:39;14.00;99.90
41922;DHT22;27609;51.002;5.354;2022-11-15T15:02:18;14.00;99.90
41922;DHT22;27609;51.002;5.354;2022-11-15T15:04:44;14.00;99.90
41922;DHT22;27609;51.002;5.354;2022-11-15T15:07:09;14.20;99.90
41922;DHT22;27609;51.002;5.354;2022-11-15T15:09:35;14.00;99.90
41922;DHT22;27609;51.002;5.354;2022-11-15T15:12:00;14.00;99.90
41922;DHT22;27609;51.002;5.354;2022-11-15T15:14:26;14.00;99.90
41922;DHT22;27609;51.002;5.354;2022-11-15T15:16:51;13.90;99.90
41922;DHT22;27609;51.002;5.354;2022-11-15T15:19:17;13.90;99.90
41922;DHT22;27609;51.002;5.354;2022-11-15T15:21:43;13.90;99.90
41922;DHT22;27609;51.002;5.354;2022-11-15T15:24:13;14.00;99.90
41922;DHT22;27609;51.002;5.354;2022-11-15T15:26:40;13.90;99.90
41922;DHT22;27609;51.002;5.354;2022-11-15T15:29:06;13.90;99.90
41922;DHT22;27609;51.002;5.354;2022-11-15T15:31:34;13.90;99.90
41922;DHT22;27609;51.002;5.354;2022-11-15T15:34:00;13.80;99.90
41922;DHT22;27609;51.002;5.354;2022-11-15T15:36:25;13.70;99.90
41922;DHT22;27609;51.002;5.354;2022-11-15T15:38:51;13.60;99.90
41922;DHT22;27609;51.002;5.354;2022-11-15T15:41:18;13.40;99.90
41922;DHT22;27609;51.002;5.354;2022-11-15T15:43:43;13.30;99.90
41922;DHT22;27609;51.002;5.354;2022-11-15T15:46:14;13.20;99.90
41922;DHT22;27609;51.002;5.354;2022-11-15T15:48:40;13.20;99.90
41922;DHT22;27609;51.002;5.354;2022-11-15T15:51:07;13.10;99.90
41922;DHT22;27609;51.002;5.354;2022-11-15T15:53:33;13.00;99.90
41922;DHT22;27609;51.002;5.354;2022-11-15T15:55:59;12.90;99.90
41922;DHT22;27609;51.002;5.354;2022-11-15T15:58:24;12.90;99.90
41922;DHT22;27609;51.002;5.354;2022-11-15T16:00:50;12.70;99.90
41922;DHT22;27609;51.002;5.354;2022-11-15T16:03:16;12.60;99.90
41922;DHT22;27609;51.002;5.354;2022-11-15T16:05:42;12.60;99.90
41922;DHT22;27609;51.002;5.354;2022-11-15T16:08:22;12.60;99.90
41922;DHT22;27609;51.002;5.354;2022-11-15T16:10:48;12.50;99.90
41922;DHT22;27609;51.002;5.354;2022-11-15T16:13:14;12.50;99.90
41922;DHT22;27609;51.002;5.354;2022-11-15T16:15:39;12.40;99.90
41922;DHT22;27609;51.002;5.354;2022-11-15T16:18:06;12.30;99.90
41922;DHT22;27609;51.002;5.354;2022-11-15T16:20:45;12.30;99.90
41922;DHT22;27609;51.002;5.354;2022-11-15T16:23:15;12.30;99.90
41922;DHT22;27609;51.002;5.354;2022-11-15T16:25:49;12.30;99.90
41922;DHT22;27609;51.002;5.354;2022-11-15T16:28:20;12.40;99.90
41922;DHT22;27609;51.002;5.354;2022-11-15T16:30:46;12.20;99.90
41922;DHT22;27609;51.002;5.354;2022-11-15T16:33:11;12.10;99.90
41922;DHT22;27609;51.002;5.354;2022-11-15T16:35:37;12.00;99.90
41922;DHT22;27609;51.002;5.354;2022-11-15T16:38:03;12.00;99.90
41922;DHT22;27609;51.002;5.354;2022-11-15T16:40:31;12.00;99.90
41922;DHT22;27609;51.002;5.354;2022-11-15T16:42:57;12.00;99.90
41922;DHT22;27609;51.002;5.354;2022-11-15T16:45:24;11.90;99.90
41922;DHT22;27609;51.002;5.354;2022-11-15T16:47:50;11.90;99.90
41922;DHT22;27609;51.002;5.354;2022-11-15T16:50:30;11.80;99.90
41922;DHT22;27609;51.002;5.354;2022-11-15T16:52:57;11.70;99.90
41922;DHT22;27609;51.002;5.354;2022-11-15T16:55:25;11.80;99.90
41922;DHT22;27609;51.002;5.354;2022-11-15T16:57:53;11.80;99.90
41922;DHT22;27609;51.002;5.354;2022-11-15T17:00:19;11.70;99.90
41922;DHT22;27609;51.002;5.354;2022-11-15T17:02:47;11.70;99.90
41922;DHT22;27609;51.002;5.354;2022-11-15T17:05:14;11.70;99.90
41922;DHT22;27609;51.002;5.354;2022-11-15T17:07:40;11.70;99.90
41922;DHT22;27609;51.002;5.354;2022-11-15T17:10:07;11.70;99.90
41922;DHT22;27609;51.002;5.354;2022-11-15T17:12:34;11.70;99.90
41922;DHT22;27609;51.002;5.354;2022-11-15T17:15:01;11.80;99.90
41922;DHT22;27609;51.002;5.354;2022-11-15T17:17:27;11.70;99.90
41922;DHT22;27609;51.002;5.354;2022-11-15T17:19:53;11.70;99.90
41922;DHT22;27609;51.002;5.354;2022-11-15T17:22:19;11.70;99.90
41922;DHT22;27609;51.002;5.354;2022-11-15T17:24:45;11.70;99.90
41922;DHT22;27609;51.002;5.354;2022-11-15T17:27:11;11.70;99.90
41922;DHT22;27609;51.002;5.354;2022-11-15T17:29:36;11.70;99.90
41922;DHT22;27609;51.002;5.354;2022-11-15T17:32:02;11.70;99.90
41922;DHT22;27609;51.002;5.354;2022-11-15T17:34:28;11.70;99.90
41922;DHT22;27609;51.002;5.354;2022-11-15T17:36:53;11.80;99.90
41922;DHT22;27609;51.002;5.354;2022-11-15T17:39:19;11.80;99.90
41922;DHT22;27609;51.002;5.354;2022-11-15T17:41:45;11.80;99.90
41922;DHT22;27609;51.002;5.354;2022-11-15T17:44:11;11.70;99.90
41922;DHT22;27609;51.002;5.354;2022-11-15T17:46:37;11.80;99.90
41922;DHT22;27609;51.002;5.354;2022-11-15T17:49:05;11.80;99.90
41922;DHT22;27609;51.002;5.354;2022-11-15T17:51:31;11.80;99.90